Details From EGLL - London Heathrow
To VDPP - Phnom Penh Intl
Flight Number -
Tags Generated
Created
Modified
Stats Distance 5,423 nm / 10,043 km
Max Altitude 0 ft / 0 m
Waypoints 14
Social Downloads 2
Likes 0
Share VATSIM

Download

Looking for another format? Having issues loading an existing format? Contact us
Advertisement - Login to hide

Notes

Generated

Route

EGLL EH035 IRKIS MAPEX SOTET DULEB KRANI MASEN US01 OL PSL35 HAPPY PNH VDPP

ID Type Via Altitude Latitude Longitude Leg Dist Tot Dist Heading (true) Name
O EGLL APT - 0 ft / 0 m 51.46477˚ -0.48695˚ - 0 nm - -
EH035 FIX - 0 ft / 0 m 52.47639˚ 4.92833˚ 209 nm 209 nm 71° / 75° -
IRKIS FIX - 0 ft / 0 m 53.24889˚ 10.88861˚ 220 nm 430 nm 76° / 80° -
MAPEX FIX - 0 ft / 0 m 53.70611˚ 17.00361˚ 220 nm 650 nm 80° / 85° -
SOTET FIX - 0 ft / 0 m 53.82972˚ 23.55306˚ 232 nm 883 nm 86° / 91° -
DULEB FIX - 0 ft / 0 m 53.81833˚ 29.39167˚ 206 nm 1089 nm 88° / 93° -
KRANI FIX - 0 ft / 0 m 53.40500˚ 35.69000˚ 225 nm 1315 nm 94° / 99° -
MASEN FIX - 0 ft / 0 m 52.78167˚ 40.84167˚ 189 nm 1505 nm 99° / 103° -
US01 FIX - 0 ft / 0 m 51.81333˚ 46.39333˚ 211 nm 1717 nm 104° / 108° -
OL NDB - 0 ft / 0 m 43.41667˚ 70.75000˚ 1100 nm 2817 nm 108° / 126° AKKOL NDB
PSL35 FIX - 0 ft / 0 m 17.18742˚ 100.25335˚ 2173 nm 4990 nm 127° / 143° -
HAPPY FIX - 0 ft / 0 m 14.64629˚ 102.24744˚ 191 nm 5182 nm 143° / 143° -
PNH VOR - 0 ft / 0 m 11.54667˚ 104.84167˚ 240 nm 5422 nm 141° / 141° PHNOM PENH VOR-DME
O VDPP APT - 0 ft / 0 m 11.53713˚ 104.83433˚ 0 nm 5423 nm 217° / 217° -

Altitude Profile

Advertisement - Login to hide

Weather


0- 5 10 15 20 25 30 35+ Temperature / ° C

Clouds and Precipitation
Forecast for 2017-12-18 00:00 UTC. Updated 2 hours ago

Ground ~20,000 ft ~40,000 ft Winds

EGLL

Details ICAO EGLL (LHR)
Name London Heathrow
Region United Kingdom
Timezone Europe/London (UTC+0.0)
Stats Elevation 83 ft / 25 m (AMSL)
Location 51.471218° -0.460978°
Runways 2
Magnetic Variation 0.558° W

METAR

EGLL 180050Z AUTO VRB03KT 9999 NCD 06/04 Q1022 NOSIG

Decode

TAF

TAF EGLL 172252Z 1800/1906 32006KT 9999 FEW040 PROB30 1800/1810 6000 BECMG 1816/1819 5000 BR BECMG 1819/1822 2000 MIFG PROB30 1822/1824 0200 FG VV/// PROB40 1900/1906 0200 FG FZFG VV///

Decode

Departure Runways

ID Width Length Bearing (true) Bearing (mag) Surface Threshold Offset Overrun Length
09L 164 ft / 50 m 12,811 ft / 3,905 m 89.64° 90.20° Asphalt 1,004 ft / 306 m 0 ft / 0 m
09R 164 ft / 50 m 12,019 ft / 3,663 m 89.67° 90.23° Asphalt 1,007 ft / 307 m 0 ft / 0 m
27L 164 ft / 50 m 12,019 ft / 3,663 m 269.71° 270.27° Asphalt 0 ft / 0 m 69 ft / 21 m
27R 164 ft / 50 m 12,811 ft / 3,905 m 269.69° 270.25° Asphalt 0 ft / 0 m 69 ft / 21 m

VDPP

Details ICAO VDPP (PNH)
Name Phnom Penh Intl
Region Cambodia
Timezone Asia/Phnom_Penh (UTC+7.0)
Stats Elevation 40 ft / 12 m (AMSL)
Location 11.546542° 104.844142°
Runways 1
Magnetic Variation 0.493° W

METAR

VDPP 180100Z 02009KT 340V050 9999 FEW017 21/15 Q1016

Decode

TAF

TAF VDPP 172300Z 1800/1818 02010KT 9999 SCT017= TAF VDSR 172300Z 1800/1818 02010KT 9999 SCT017

Decode

Destination Runways

ID Width Length Bearing (true) Bearing (mag) Surface Threshold Offset Overrun Length
05 144 ft / 44 m 9,815 ft / 2,992 m 45.61° 46.10° Asphalt 400 ft / 122 m 0 ft / 0 m
23 144 ft / 44 m 9,815 ft / 2,992 m 225.61° 226.10° Asphalt 492 ft / 150 m 0 ft / 0 m

Approach Navaids

Runway Type Ident Frequency Range Bearing (true) Bearing (mag) Slope Elevation
23 Localiser IPNP 109.70 MHz 18 nm / 33 km 225.62° 226.11° - 40 ft / 12 m (AMSL)
23 Glidescope IPNP 109.70 MHz 10 nm / 19 km 225.61° 226.10° 3.00° 37 ft / 11 m (AMSL)

Popular Alternatives